sensor_id;sensor_type;location;lat;lon;timestamp;temperature;humidity
51619;DHT22;38518;53.164;5.430;2024-01-07T00:01:49;0.70;99.90
51619;DHT22;38518;53.164;5.430;2024-01-07T00:04:16;-0.10;99.90
51619;DHT22;38518;53.164;5.430;2024-01-07T00:06:42;0.00;99.90
51619;DHT22;38518;53.164;5.430;2024-01-07T00:09:08;0.60;99.90
51619;DHT22;38518;53.164;5.430;2024-01-07T00:11:33;0.70;99.90
51619;DHT22;38518;53.164;5.430;2024-01-07T00:13:59;-0.10;99.90
51619;DHT22;38518;53.164;5.430;2024-01-07T00:16:25;0.00;99.90
51619;DHT22;38518;53.164;5.430;2024-01-07T00:18:50;1.20;99.90
51619;DHT22;38518;53.164;5.430;2024-01-07T00:21:16;0.10;99.90
51619;DHT22;38518;53.164;5.430;2024-01-07T00:23:41;0.80;99.90
51619;DHT22;38518;53.164;5.430;2024-01-07T00:26:07;1.30;99.90
51619;DHT22;38518;53.164;5.430;2024-01-07T00:28:34;0.70;99.90
51619;DHT22;38518;53.164;5.430;2024-01-07T00:30:59;0.00;99.90
51619;DHT22;38518;53.164;5.430;2024-01-07T00:33:25;1.60;99.90
51619;DHT22;38518;53.164;5.430;2024-01-07T00:35:51;1.70;99.90
51619;DHT22;38518;53.164;5.430;2024-01-07T00:38:16;1.80;99.90
51619;DHT22;38518;53.164;5.430;2024-01-07T00:40:43;1.10;99.90
51619;DHT22;38518;53.164;5.430;2024-01-07T00:43:08;0.00;99.90
51619;DHT22;38518;53.164;5.430;2024-01-07T00:45:34;-0.80;99.90
51619;DHT22;38518;53.164;5.430;2024-01-07T00:48:00;2.00;99.90
51619;DHT22;38518;53.164;5.430;2024-01-07T00:50:25;1.90;99.90
51619;DHT22;38518;53.164;5.430;2024-01-07T00:52:51;0.70;99.90
51619;DHT22;38518;53.164;5.430;2024-01-07T00:55:17;0.10;99.90
51619;DHT22;38518;53.164;5.430;2024-01-07T00:57:42;0.90;99.90
51619;DHT22;38518;53.164;5.430;2024-01-07T01:00:08;1.00;99.90
51619;DHT22;38518;53.164;5.430;2024-01-07T01:02:34;0.10;99.90
51619;DHT22;38518;53.164;5.430;2024-01-07T01:05:01;1.40;99.90
51619;DHT22;38518;53.164;5.430;2024-01-07T01:07:27;0.10;99.90
51619;DHT22;38518;53.164;5.430;2024-01-07T01:09:53;2.10;99.90
51619;DHT22;38518;53.164;5.430;2024-01-07T01:12:19;0.40;99.90
51619;DHT22;38518;53.164;5.430;2024-01-07T01:14:44;1.50;99.90
51619;DHT22;38518;53.164;5.430;2024-01-07T01:17:10;0.20;99.90
51619;DHT22;38518;53.164;5.430;2024-01-07T01:19:36;2.10;99.90
51619;DHT22;38518;53.164;5.430;2024-01-07T01:22:01;0.80;99.90
51619;DHT22;38518;53.164;5.430;2024-01-07T01:24:27;0.20;99.90
51619;DHT22;38518;53.164;5.430;2024-01-07T01:26:53;1.00;99.90
51619;DHT22;38518;53.164;5.430;2024-01-07T01:29:18;1.40;99.90
51619;DHT22;38518;53.164;5.430;2024-01-07T01:31:44;0.80;99.90
51619;DHT22;38518;53.164;5.430;2024-01-07T01:34:10;0.90;99.90
51619;DHT22;38518;53.164;5.430;2024-01-07T01:36:35;0.20;99.90
51619;DHT22;38518;53.164;5.430;2024-01-07T01:39:01;1.70;99.90
51619;DHT22;38518;53.164;5.430;2024-01-07T01:41:27;0.30;99.90
51619;DHT22;38518;53.164;5.430;2024-01-07T01:43:57;1.40;99.90
51619;DHT22;38518;53.164;5.430;2024-01-07T01:46:24;-0.40;99.90
51619;DHT22;38518;53.164;5.430;2024-01-07T01:48:49;1.20;99.90
51619;DHT22;38518;53.164;5.430;2024-01-07T01:51:16;2.00;99.90
51619;DHT22;38518;53.164;5.430;2024-01-07T01:53:42;1.60;99.90
51619;DHT22;38518;53.164;5.430;2024-01-07T01:56:08;0.10;99.90
51619;DHT22;38518;53.164;5.430;2024-01-07T01:58:34;0.10;99.90
51619;DHT22;38518;53.164;5.430;2024-01-07T02:00:59;1.90;99.90
51619;DHT22;38518;53.164;5.430;2024-01-07T02:03:25;2.00;99.90
51619;DHT22;38518;53.164;5.430;2024-01-07T02:05:52;0.60;99.90
51619;DHT22;38518;53.164;5.430;2024-01-07T02:08:19;0.00;99.90
51619;DHT22;38518;53.164;5.430;2024-01-07T02:10:45;1.00;99.90
51619;DHT22;38518;53.164;5.430;2024-01-07T02:13:11;0.10;99.90
51619;DHT22;38518;53.164;5.430;2024-01-07T02:15:36;0.00;99.90
51619;DHT22;38518;53.164;5.430;2024-01-07T02:18:02;0.10;99.90
51619;DHT22;38518;53.164;5.430;2024-01-07T02:20:28;0.00;99.90
51619;DHT22;38518;53.164;5.430;2024-01-07T02:22:54;0.10;99.90
51619;DHT22;38518;53.164;5.430;2024-01-07T02:25:20;0.90;99.90
51619;DHT22;38518;53.164;5.430;2024-01-07T02:27:45;0.00;99.90
51619;DHT22;38518;53.164;5.430;2024-01-07T02:30:11;2.10;99.90
51619;DHT22;38518;53.164;5.430;2024-01-07T02:32:37;0.00;99.90
51619;DHT22;38518;53.164;5.430;2024-01-07T02:35:03;1.10;98.00
51619;DHT22;38518;53.164;5.430;2024-01-07T02:37:29;0.00;95.50
51619;DHT22;38518;53.164;5.430;2024-01-07T02:39:55;1.00;90.50
51619;DHT22;38518;53.164;5.430;2024-01-07T02:42:21;-0.10;86.50
51619;DHT22;38518;53.164;5.430;2024-01-07T02:44:47;-0.10;80.80
51619;DHT22;38518;53.164;5.430;2024-01-07T02:49:38;-0.10;66.10
51619;DHT22;38518;53.164;5.430;2024-01-07T02:52:04;1.90;64.30
51619;DHT22;38518;53.164;5.430;2024-01-07T02:54:30;-0.20;53.20
51619;DHT22;38518;53.164;5.430;2024-01-07T02:59:22;-0.30;47.70
51619;DHT22;38518;53.164;5.430;2024-01-07T03:01:47;-0.30;57.20
51619;DHT22;38518;53.164;5.430;2024-01-07T03:04:14;0.90;55.00
51619;DHT22;38518;53.164;5.430;2024-01-07T03:06:40;1.60;51.60
51619;DHT22;38518;53.164;5.430;2024-01-07T03:09:07;-0.40;45.50
51619;DHT22;38518;53.164;5.430;2024-01-07T03:11:33;0.60;48.90
51619;DHT22;38518;53.164;5.430;2024-01-07T03:13:59;-0.50;44.90
51619;DHT22;38518;53.164;5.430;2024-01-07T03:16:26;-0.40;39.20
51619;DHT22;38518;53.164;5.430;2024-01-07T03:18:52;1.50;47.90
51619;DHT22;38518;53.164;5.430;2024-01-07T03:21:22;0.50;42.50
51619;DHT22;38518;53.164;5.430;2024-01-07T03:23:49;0.20;44.90
51619;DHT22;38518;53.164;5.430;2024-01-07T03:26:16;-0.50;44.20
51619;DHT22;38518;53.164;5.430;2024-01-07T03:28:43;-0.40;46.40
51619;DHT22;38518;53.164;5.430;2024-01-07T03:31:11;-0.50;47.00
51619;DHT22;38518;53.164;5.430;2024-01-07T03:33:38;-0.40;46.30
51619;DHT22;38518;53.164;5.430;2024-01-07T03:36:13;0.20;45.50
51619;DHT22;38518;53.164;5.430;2024-01-07T03:38:40;-0.50;43.10
51619;DHT22;38518;53.164;5.430;2024-01-07T03:41:06;-0.40;43.40
51619;DHT22;38518;53.164;5.430;2024-01-07T03:43:32;0.40;42.90
51619;DHT22;38518;53.164;5.430;2024-01-07T03:45:58;0.20;46.10
51619;DHT22;38518;53.164;5.430;2024-01-07T03:48:24;1.10;42.20
51619;DHT22;38518;53.164;5.430;2024-01-07T03:50:50;-0.10;38.60
51619;DHT22;38518;53.164;5.430;2024-01-07T03:53:16;1.30;39.50
51619;DHT22;38518;53.164;5.430;2024-01-07T03:55:42;1.30;37.20
51619;DHT22;38518;53.164;5.430;2024-01-07T03:58:08;-0.40;35.70
51619;DHT22;38518;53.164;5.430;2024-01-07T04:00:34;-0.40;33.00
51619;DHT22;38518;53.164;5.430;2024-01-07T04:03:01;-0.30;33.10
51619;DHT22;38518;53.164;5.430;2024-01-07T04:05:26;-0.30;30.60
51619;DHT22;38518;53.164;5.430;2024-01-07T04:07:52;0.60;31.00
51619;DHT22;38518;53.164;5.430;2024-01-07T04:10:18;-0.20;23.50
51619;DHT22;38518;53.164;5.430;2024-01-07T04:12:44;-0.20;19.40
51619;DHT22;38518;53.164;5.430;2024-01-07T04:15:11;-0.10;18.40
51619;DHT22;38518;53.164;5.430;2024-01-07T04:17:37;-0.10;18.20
51619;DHT22;38518;53.164;5.430;2024-01-07T04:20:04;-0.10;16.70
51619;DHT22;38518;53.164;5.430;2024-01-07T04:22:30;0.00;14.30
51619;DHT22;38518;53.164;5.430;2024-01-07T04:24:55;1.00;11.00
51619;DHT22;38518;53.164;5.430;2024-01-07T04:27:21;1.80;10.10
51619;DHT22;38518;53.164;5.430;2024-01-07T04:29:47;0.00;12.40
51619;DHT22;38518;53.164;5.430;2024-01-07T04:32:12;0.00;7.50
51619;DHT22;38518;53.164;5.430;2024-01-07T04:34:38;1.80;13.10
51619;DHT22;38518;53.164;5.430;2024-01-07T04:37:04;0.10;9.10
51619;DHT22;38518;53.164;5.430;2024-01-07T04:39:29;0.00;5.90
51619;DHT22;38518;53.164;5.430;2024-01-07T04:41:55;0.10;4.30
51619;DHT22;38518;53.164;5.430;2024-01-07T04:44:21;0.30;1.80
51619;DHT22;38518;53.164;5.430;2024-01-07T04:46:47;1.30;1.00
51619;DHT22;38518;53.164;5.430;2024-01-07T04:49:14;0.10;1.00
51619;DHT22;38518;53.164;5.430;2024-01-07T04:51:40;1.40;1.00
51619;DHT22;38518;53.164;5.430;2024-01-07T04:54:06;-0.20;1.00
51619;DHT22;38518;53.164;5.430;2024-01-07T04:56:32;0.20;1.00
51619;DHT22;38518;53.164;5.430;2024-01-07T04:58:58;0.50;1.00
51619;DHT22;38518;53.164;5.430;2024-01-07T05:01:23;1.80;1.00
51619;DHT22;38518;53.164;5.430;2024-01-07T05:03:49;0.30;1.00
51619;DHT22;38518;53.164;5.430;2024-01-07T05:06:15;2.10;1.00
51619;DHT22;38518;53.164;5.430;2024-01-07T05:08:41;0.60;1.00
51619;DHT22;38518;53.164;5.430;2024-01-07T05:11:07;0.90;1.00
51619;DHT22;38518;53.164;5.430;2024-01-07T05:13:34;0.00;1.00
51619;DHT22;38518;53.164;5.430;2024-01-07T05:16:00;0.40;1.00
51619;DHT22;38518;53.164;5.430;2024-01-07T05:18:26;0.10;1.00
51619;DHT22;38518;53.164;5.430;2024-01-07T05:20:52;1.40;1.00
51619;DHT22;38518;53.164;5.430;2024-01-07T05:23:18;2.00;1.00
51619;DHT22;38518;53.164;5.430;2024-01-07T05:25:45;0.40;1.00
51619;DHT22;38518;53.164;5.430;2024-01-07T05:28:14;0.40;1.00
51619;DHT22;38518;53.164;5.430;2024-01-07T05:30:41;0.10;1.00
51619;DHT22;38518;53.164;5.430;2024-01-07T05:33:07;0.10;1.00
51619;DHT22;38518;53.164;5.430;2024-01-07T05:35:32;-0.10;1.00
51619;DHT22;38518;53.164;5.430;2024-01-07T05:37:58;0.00;1.00
51619;DHT22;38518;53.164;5.430;2024-01-07T05:40:24;0.10;1.00
51619;DHT22;38518;53.164;5.430;2024-01-07T05:42:50;0.10;1.00
51619;DHT22;38518;53.164;5.430;2024-01-07T05:45:15;0.10;1.00
51619;DHT22;38518;53.164;5.430;2024-01-07T05:47:41;0.90;1.00
51619;DHT22;38518;53.164;5.430;2024-01-07T05:50:07;1.10;1.00
51619;DHT22;38518;53.164;5.430;2024-01-07T05:52:33;0.10;1.00
51619;DHT22;38518;53.164;5.430;2024-01-07T05:54:59;0.10;1.00
51619;DHT22;38518;53.164;5.430;2024-01-07T05:57:25;0.30;1.00
51619;DHT22;38518;53.164;5.430;2024-01-07T05:59:51;0.10;1.00
51619;DHT22;38518;53.164;5.430;2024-01-07T06:02:19;-0.40;1.00
51619;DHT22;38518;53.164;5.430;2024-01-07T06:04:48;1.30;1.00
51619;DHT22;38518;53.164;5.430;2024-01-07T06:07:13;0.80;1.00
51619;DHT22;38518;53.164;5.430;2024-01-07T06:09:39;1.40;1.00
51619;DHT22;38518;53.164;5.430;2024-01-07T06:12:05;1.80;1.00
51619;DHT22;38518;53.164;5.430;2024-01-07T06:14:31;0.10;1.00
51619;DHT22;38518;53.164;5.430;2024-01-07T06:16:57;0.10;1.00
51619;DHT22;38518;53.164;5.430;2024-01-07T06:19:22;1.90;1.00
51619;DHT22;38518;53.164;5.430;2024-01-07T06:21:48;0.30;1.00
51619;DHT22;38518;53.164;5.430;2024-01-07T06:24:14;0.60;1.00
51619;DHT22;38518;53.164;5.430;2024-01-07T06:26:40;2.30;1.00
51619;DHT22;38518;53.164;5.430;2024-01-07T06:29:07;2.20;1.00
51619;DHT22;38518;53.164;5.430;2024-01-07T06:31:33;0.20;1.00
51619;DHT22;38518;53.164;5.430;2024-01-07T06:33:59;0.00;1.00
51619;DHT22;38518;53.164;5.430;2024-01-07T06:36:25;1.80;1.00
51619;DHT22;38518;53.164;5.430;2024-01-07T06:38:51;0.10;1.00
51619;DHT22;38518;53.164;5.430;2024-01-07T06:41:16;1.90;1.00
51619;DHT22;38518;53.164;5.430;2024-01-07T06:43:42;0.30;1.00
51619;DHT22;38518;53.164;5.430;2024-01-07T06:46:08;0.70;1.00
51619;DHT22;38518;53.164;5.430;2024-01-07T06:48:34;2.20;1.00
51619;DHT22;38518;53.164;5.430;2024-01-07T06:50:59;1.70;1.00
51619;DHT22;38518;53.164;5.430;2024-01-07T06:53:25;1.00;1.00
51619;DHT22;38518;53.164;5.430;2024-01-07T06:55:51;2.30;1.00
51619;DHT22;38518;53.164;5.430;2024-01-07T06:58:16;0.00;1.00
51619;DHT22;38518;53.164;5.430;2024-01-07T07:00:42;0.40;1.00
51619;DHT22;38518;53.164;5.430;2024-01-07T07:03:08;0.60;1.00
51619;DHT22;38518;53.164;5.430;2024-01-07T07:05:34;1.50;1.00
51619;DHT22;38518;53.164;5.430;2024-01-07T07:08:00;0.10;1.00
51619;DHT22;38518;53.164;5.430;2024-01-07T07:10:25;1.90;1.00
51619;DHT22;38518;53.164;5.430;2024-01-07T07:12:51;1.30;1.00
51619;DHT22;38518;53.164;5.430;2024-01-07T07:15:17;0.10;1.00
51619;DHT22;38518;53.164;5.430;2024-01-07T07:17:43;0.20;1.00
51619;DHT22;38518;53.164;5.430;2024-01-07T07:20:09;1.70;1.00
51619;DHT22;38518;53.164;5.430;2024-01-07T07:22:35;0.10;1.00
51619;DHT22;38518;53.164;5.430;2024-01-07T07:25:01;0.10;1.00
51619;DHT22;38518;53.164;5.430;2024-01-07T07:27:28;1.90;1.00
51619;DHT22;38518;53.164;5.430;2024-01-07T07:29:53;1.10;1.00
51619;DHT22;38518;53.164;5.430;2024-01-07T07:32:19;1.40;1.00
51619;DHT22;38518;53.164;5.430;2024-01-07T07:34:45;1.70;1.00
51619;DHT22;38518;53.164;5.430;2024-01-07T07:37:12;0.10;1.00
51619;DHT22;38518;53.164;5.430;2024-01-07T07:39:38;0.10;1.00
51619;DHT22;38518;53.164;5.430;2024-01-07T07:42:04;0.10;1.00
51619;DHT22;38518;53.164;5.430;2024-01-07T07:44:30;0.10;1.00
51619;DHT22;38518;53.164;5.430;2024-01-07T07:46:56;0.80;1.00
51619;DHT22;38518;53.164;5.430;2024-01-07T07:49:21;0.10;1.00
51619;DHT22;38518;53.164;5.430;2024-01-07T07:51:47;0.00;1.00
51619;DHT22;38518;53.164;5.430;2024-01-07T07:54:13;1.80;1.00
51619;DHT22;38518;53.164;5.430;2024-01-07T07:56:38;2.50;1.00
51619;DHT22;38518;53.164;5.430;2024-01-07T07:59:04;0.10;1.00
51619;DHT22;38518;53.164;5.430;2024-01-07T08:01:30;0.10;1.00
51619;DHT22;38518;53.164;5.430;2024-01-07T08:03:56;0.10;1.00
51619;DHT22;38518;53.164;5.430;2024-01-07T08:06:22;0.10;1.00
51619;DHT22;38518;53.164;5.430;2024-01-07T08:08:47;0.10;1.00
51619;DHT22;38518;53.164;5.430;2024-01-07T08:11:13;0.00;1.00
51619;DHT22;38518;53.164;5.430;2024-01-07T08:13:40;0.10;1.00
51619;DHT22;38518;53.164;5.430;2024-01-07T08:16:06;-0.10;1.00
51619;DHT22;38518;53.164;5.430;2024-01-07T08:18:32;1.60;1.00
51619;DHT22;38518;53.164;5.430;2024-01-07T08:20:58;1.40;1.00
51619;DHT22;38518;53.164;5.430;2024-01-07T08:23:24;0.00;1.00
51619;DHT22;38518;53.164;5.430;2024-01-07T08:25:50;1.70;1.00
51619;DHT22;38518;53.164;5.430;2024-01-07T08:28:19;-0.10;1.00
51619;DHT22;38518;53.164;5.430;2024-01-07T08:30:46;-0.10;1.00
51619;DHT22;38518;53.164;5.430;2024-01-07T08:33:12;-0.10;1.00
51619;DHT22;38518;53.164;5.430;2024-01-07T08:35:38;0.20;1.00
51619;DHT22;38518;53.164;5.430;2024-01-07T08:38:04;-0.30;1.00
51619;DHT22;38518;53.164;5.430;2024-01-07T08:40:30;0.20;1.00
51619;DHT22;38518;53.164;5.430;2024-01-07T08:42:56;-0.30;1.00
51619;DHT22;38518;53.164;5.430;2024-01-07T08:45:22;-0.40;1.00
51619;DHT22;38518;53.164;5.430;2024-01-07T08:47:48;-0.60;1.00
51619;DHT22;38518;53.164;5.430;2024-01-07T08:50:14;0.90;1.00
51619;DHT22;38518;53.164;5.430;2024-01-07T08:52:40;-0.40;1.00
51619;DHT22;38518;53.164;5.430;2024-01-07T08:55:09;-0.40;1.00
51619;DHT22;38518;53.164;5.430;2024-01-07T08:57:41;-0.40;1.00
51619;DHT22;38518;53.164;5.430;2024-01-07T09:00:07;1.30;1.00
51619;DHT22;38518;53.164;5.430;2024-01-07T09:05:01;-0.10;1.00
51619;DHT22;38518;53.164;5.430;2024-01-07T09:09:53;-0.10;1.00
51619;DHT22;38518;53.164;5.430;2024-01-07T09:12:24;0.00;1.00
51619;DHT22;38518;53.164;5.430;2024-01-07T09:14:50;2.20;1.00
51619;DHT22;38518;53.164;5.430;2024-01-07T09:17:16;1.90;1.00
51619;DHT22;38518;53.164;5.430;2024-01-07T09:19:42;2.20;1.00
51619;DHT22;38518;53.164;5.430;2024-01-07T09:22:08;0.30;1.00
51619;DHT22;38518;53.164;5.430;2024-01-07T09:24:34;2.00;1.00
51619;DHT22;38518;53.164;5.430;2024-01-07T09:26:59;0.30;1.00
51619;DHT22;38518;53.164;5.430;2024-01-07T09:29:25;2.30;1.00
51619;DHT22;38518;53.164;5.430;2024-01-07T09:31:51;-0.40;1.00
51619;DHT22;38518;53.164;5.430;2024-01-07T09:34:18;-0.80;1.00
51619;DHT22;38518;53.164;5.430;2024-01-07T09:36:44;0.30;1.00
51619;DHT22;38518;53.164;5.430;2024-01-07T09:39:10;1.20;1.00
51619;DHT22;38518;53.164;5.430;2024-01-07T09:41:35;0.40;1.00
51619;DHT22;38518;53.164;5.430;2024-01-07T09:44:01;0.30;1.00
51619;DHT22;38518;53.164;5.430;2024-01-07T09:46:29;1.40;1.00
51619;DHT22;38518;53.164;5.430;2024-01-07T09:48:57;0.20;1.00
51619;DHT22;38518;53.164;5.430;2024-01-07T09:51:23;0.20;1.00
51619;DHT22;38518;53.164;5.430;2024-01-07T09:53:54;0.30;1.00
51619;DHT22;38518;53.164;5.430;2024-01-07T09:56:26;0.30;1.00
51619;DHT22;38518;53.164;5.430;2024-01-07T09:58:54;0.30;1.00
51619;DHT22;38518;53.164;5.430;2024-01-07T10:01:20;0.30;1.00
51619;DHT22;38518;53.164;5.430;2024-01-07T10:03:46;0.90;1.00
51619;DHT22;38518;53.164;5.430;2024-01-07T10:06:12;1.20;1.00
51619;DHT22;38518;53.164;5.430;2024-01-07T10:08:39;1.60;1.00
51619;DHT22;38518;53.164;5.430;2024-01-07T10:11:05;2.20;1.00
51619;DHT22;38518;53.164;5.430;2024-01-07T10:13:31;0.40;1.00
51619;DHT22;38518;53.164;5.430;2024-01-07T10:15:57;0.50;1.00
51619;DHT22;38518;53.164;5.430;2024-01-07T10:18:24;0.40;1.00
51619;DHT22;38518;53.164;5.430;2024-01-07T10:20:50;0.40;1.00
51619;DHT22;38518;53.164;5.430;2024-01-07T10:23:19;1.50;1.00
51619;DHT22;38518;53.164;5.430;2024-01-07T10:25:45;1.20;1.00
51619;DHT22;38518;53.164;5.430;2024-01-07T10:28:11;2.00;1.00
51619;DHT22;38518;53.164;5.430;2024-01-07T10:30:39;0.80;1.00
51619;DHT22;38518;53.164;5.430;2024-01-07T10:33:07;0.60;1.00
51619;DHT22;38518;53.164;5.430;2024-01-07T10:35:34;1.50;1.00
51619;DHT22;38518;53.164;5.430;2024-01-07T10:38:00;2.30;1.00
51619;DHT22;38518;53.164;5.430;2024-01-07T10:40:31;0.80;1.00
51619;DHT22;38518;53.164;5.430;2024-01-07T10:42:59;1.30;1.00
51619;DHT22;38518;53.164;5.430;2024-01-07T10:45:25;0.70;1.00
51619;DHT22;38518;53.164;5.430;2024-01-07T10:47:54;0.70;1.00
51619;DHT22;38518;53.164;5.430;2024-01-07T10:50:22;2.10;1.00
51619;DHT22;38518;53.164;5.430;2024-01-07T10:52:49;2.70;1.00
51619;DHT22;38518;53.164;5.430;2024-01-07T10:55:18;1.90;1.00
51619;DHT22;38518;53.164;5.430;2024-01-07T10:57:48;0.70;1.00
51619;DHT22;38518;53.164;5.430;2024-01-07T11:00:16;0.70;1.00
51619;DHT22;38518;53.164;5.430;2024-01-07T11:05:54;2.70;1.00
51619;DHT22;38518;53.164;5.430;2024-01-07T11:11:23;1.10;1.00
51619;DHT22;38518;53.164;5.430;2024-01-07T11:13:51;1.20;1.00
51619;DHT22;38518;53.164;5.430;2024-01-07T11:16:42;1.20;1.00
51619;DHT22;38518;53.164;5.430;2024-01-07T11:19:14;1.50;1.00
51619;DHT22;38518;53.164;5.430;2024-01-07T11:21:40;1.80;1.00
51619;DHT22;38518;53.164;5.430;2024-01-07T11:24:06;2.10;1.00
51619;DHT22;38518;53.164;5.430;2024-01-07T11:26:32;2.90;1.00
51619;DHT22;38518;53.164;5.430;2024-01-07T11:28:58;3.70;1.00
51619;DHT22;38518;53.164;5.430;2024-01-07T11:34:04;4.50;1.00
51619;DHT22;38518;53.164;5.430;2024-01-07T11:36:31;4.20;1.00
51619;DHT22;38518;53.164;5.430;2024-01-07T11:38:57;4.40;1.00
51619;DHT22;38518;53.164;5.430;2024-01-07T11:41:24;5.10;1.00
51619;DHT22;38518;53.164;5.430;2024-01-07T11:43:56;5.10;1.00
51619;DHT22;38518;53.164;5.430;2024-01-07T11:46:23;5.80;1.00
51619;DHT22;38518;53.164;5.430;2024-01-07T11:48:50;6.30;1.00
51619;DHT22;38518;53.164;5.430;2024-01-07T11:51:18;6.90;1.00
51619;DHT22;38518;53.164;5.430;2024-01-07T11:53:46;7.20;1.00
51619;DHT22;38518;53.164;5.430;2024-01-07T11:56:13;7.40;1.00
51619;DHT22;38518;53.164;5.430;2024-01-07T11:58:40;7.70;1.00
51619;DHT22;38518;53.164;5.430;2024-01-07T12:01:06;8.10;1.00
51619;DHT22;38518;53.164;5.430;2024-01-07T12:03:32;8.20;1.00
51619;DHT22;38518;53.164;5.430;2024-01-07T12:05:57;8.10;1.00
51619;DHT22;38518;53.164;5.430;2024-01-07T12:08:23;7.90;1.00
51619;DHT22;38518;53.164;5.430;2024-01-07T12:10:49;7.60;1.00
51619;DHT22;38518;53.164;5.430;2024-01-07T12:13:16;7.60;1.00
51619;DHT22;38518;53.164;5.430;2024-01-07T12:15:43;7.30;1.00
51619;DHT22;38518;53.164;5.430;2024-01-07T12:18:09;6.90;1.00
51619;DHT22;38518;53.164;5.430;2024-01-07T12:20:35;6.40;1.00
51619;DHT22;38518;53.164;5.430;2024-01-07T12:23:08;6.10;1.00
51619;DHT22;38518;53.164;5.430;2024-01-07T12:25:34;5.90;1.00
51619;DHT22;38518;53.164;5.430;2024-01-07T12:28:01;5.70;1.00
51619;DHT22;38518;53.164;5.430;2024-01-07T12:30:27;5.40;1.00
51619;DHT22;38518;53.164;5.430;2024-01-07T12:32:54;5.30;1.00
51619;DHT22;38518;53.164;5.430;2024-01-07T12:35:20;5.20;1.00
51619;DHT22;38518;53.164;5.430;2024-01-07T12:37:47;5.30;1.00
51619;DHT22;38518;53.164;5.430;2024-01-07T12:40:13;5.40;1.00
51619;DHT22;38518;53.164;5.430;2024-01-07T12:42:39;5.50;1.00
51619;DHT22;38518;53.164;5.430;2024-01-07T12:45:11;5.40;1.00
51619;DHT22;38518;53.164;5.430;2024-01-07T12:47:39;5.10;1.00
51619;DHT22;38518;53.164;5.430;2024-01-07T12:50:06;4.90;1.00
51619;DHT22;38518;53.164;5.430;2024-01-07T12:52:37;4.80;1.00
51619;DHT22;38518;53.164;5.430;2024-01-07T12:55:08;5.90;1.00
51619;DHT22;38518;53.164;5.430;2024-01-07T12:57:34;4.70;1.00
51619;DHT22;38518;53.164;5.430;2024-01-07T13:00:00;4.50;1.00
51619;DHT22;38518;53.164;5.430;2024-01-07T13:02:26;5.40;1.00
51619;DHT22;38518;53.164;5.430;2024-01-07T13:04:52;4.40;1.00
51619;DHT22;38518;53.164;5.430;2024-01-07T13:07:18;4.60;1.00
51619;DHT22;38518;53.164;5.430;2024-01-07T13:09:44;4.60;1.00
51619;DHT22;38518;53.164;5.430;2024-01-07T13:12:11;4.10;1.00
51619;DHT22;38518;53.164;5.430;2024-01-07T13:14:36;5.00;1.00
51619;DHT22;38518;53.164;5.430;2024-01-07T13:17:02;5.80;1.00
51619;DHT22;38518;53.164;5.430;2024-01-07T13:19:29;5.40;1.00
51619;DHT22;38518;53.164;5.430;2024-01-07T13:21:55;6.00;1.00
51619;DHT22;38518;53.164;5.430;2024-01-07T13:24:23;7.60;1.00
51619;DHT22;38518;53.164;5.430;2024-01-07T13:26:49;7.30;1.00
51619;DHT22;38518;53.164;5.430;2024-01-07T13:29:15;6.30;1.00
51619;DHT22;38518;53.164;5.430;2024-01-07T13:31:41;6.20;1.00
51619;DHT22;38518;53.164;5.430;2024-01-07T13:34:06;6.30;1.00
51619;DHT22;38518;53.164;5.430;2024-01-07T13:36:33;5.40;1.00
51619;DHT22;38518;53.164;5.430;2024-01-07T13:38:59;5.30;1.00
51619;DHT22;38518;53.164;5.430;2024-01-07T13:41:25;5.60;1.00
51619;DHT22;38518;53.164;5.430;2024-01-07T13:43:54;5.50;1.00
51619;DHT22;38518;53.164;5.430;2024-01-07T13:46:21;6.00;1.00
51619;DHT22;38518;53.164;5.430;2024-01-07T13:48:49;6.40;1.00
51619;DHT22;38518;53.164;5.430;2024-01-07T13:51:14;6.60;1.00
51619;DHT22;38518;53.164;5.430;2024-01-07T13:53:40;6.40;1.00
51619;DHT22;38518;53.164;5.430;2024-01-07T13:56:06;6.30;1.00
51619;DHT22;38518;53.164;5.430;2024-01-07T13:58:32;6.10;1.00
51619;DHT22;38518;53.164;5.430;2024-01-07T14:00:58;6.40;1.00
51619;DHT22;38518;53.164;5.430;2024-01-07T14:03:24;6.50;1.00
51619;DHT22;38518;53.164;5.430;2024-01-07T14:05:50;6.70;1.00
51619;DHT22;38518;53.164;5.430;2024-01-07T14:08:18;6.80;1.00
51619;DHT22;38518;53.164;5.430;2024-01-07T14:10:43;6.40;1.00
51619;DHT22;38518;53.164;5.430;2024-01-07T14:13:09;6.20;1.00
51619;DHT22;38518;53.164;5.430;2024-01-07T14:15:35;6.00;1.00
51619;DHT22;38518;53.164;5.430;2024-01-07T14:18:00;6.70;1.00
51619;DHT22;38518;53.164;5.430;2024-01-07T14:20:27;5.40;1.00
51619;DHT22;38518;53.164;5.430;2024-01-07T14:22:54;5.10;1.00
51619;DHT22;38518;53.164;5.430;2024-01-07T14:25:20;4.80;1.00
51619;DHT22;38518;53.164;5.430;2024-01-07T14:27:46;4.60;1.00
51619;DHT22;38518;53.164;5.430;2024-01-07T14:30:12;4.40;1.00
51619;DHT22;38518;53.164;5.430;2024-01-07T14:32:39;4.50;1.00
51619;DHT22;38518;53.164;5.430;2024-01-07T14:35:05;4.30;1.00
51619;DHT22;38518;53.164;5.430;2024-01-07T14:37:31;4.10;1.00
51619;DHT22;38518;53.164;5.430;2024-01-07T14:39:57;3.70;1.00
51619;DHT22;38518;53.164;5.430;2024-01-07T14:42:23;3.40;1.00
51619;DHT22;38518;53.164;5.430;2024-01-07T14:44:48;3.10;1.00
51619;DHT22;38518;53.164;5.430;2024-01-07T14:47:14;3.00;1.00
51619;DHT22;38518;53.164;5.430;2024-01-07T14:49:41;2.80;1.00
51619;DHT22;38518;53.164;5.430;2024-01-07T14:52:07;2.40;1.00
51619;DHT22;38518;53.164;5.430;2024-01-07T14:54:33;4.00;1.00
51619;DHT22;38518;53.164;5.430;2024-01-07T14:57:00;2.10;1.00
51619;DHT22;38518;53.164;5.430;2024-01-07T14:59:26;2.00;1.00
51619;DHT22;38518;53.164;5.430;2024-01-07T15:01:52;2.00;1.00
51619;DHT22;38518;53.164;5.430;2024-01-07T15:04:19;2.90;1.00
51619;DHT22;38518;53.164;5.430;2024-01-07T15:06:44;1.60;1.00
51619;DHT22;38518;53.164;5.430;2024-01-07T15:09:12;2.90;1.00
51619;DHT22;38518;53.164;5.430;2024-01-07T15:11:40;1.70;1.00
51619;DHT22;38518;53.164;5.430;2024-01-07T15:14:08;1.40;1.00
51619;DHT22;38518;53.164;5.430;2024-01-07T15:16:35;2.90;1.00
51619;DHT22;38518;53.164;5.430;2024-01-07T15:19:02;1.80;1.00
51619;DHT22;38518;53.164;5.430;2024-01-07T15:21:28;1.40;1.00
51619;DHT22;38518;53.164;5.430;2024-01-07T15:23:56;2.40;1.00
51619;DHT22;38518;53.164;5.430;2024-01-07T15:26:22;1.10;1.00
51619;DHT22;38518;53.164;5.430;2024-01-07T15:28:48;1.00;1.00
51619;DHT22;38518;53.164;5.430;2024-01-07T15:31:14;1.80;1.00
51619;DHT22;38518;53.164;5.430;2024-01-07T15:33:39;2.70;1.00
51619;DHT22;38518;53.164;5.430;2024-01-07T15:36:05;0.80;1.00
51619;DHT22;38518;53.164;5.430;2024-01-07T15:38:31;0.70;1.00
51619;DHT22;38518;53.164;5.430;2024-01-07T15:41:00;1.40;1.00
51619;DHT22;38518;53.164;5.430;2024-01-07T15:43:26;1.20;1.00
51619;DHT22;38518;53.164;5.430;2024-01-07T15:45:52;1.10;1.00
51619;DHT22;38518;53.164;5.430;2024-01-07T15:48:18;1.80;1.00
51619;DHT22;38518;53.164;5.430;2024-01-07T15:50:44;0.50;1.00
51619;DHT22;38518;53.164;5.430;2024-01-07T15:53:09;0.40;1.00
51619;DHT22;38518;53.164;5.430;2024-01-07T15:55:35;0.40;1.00
51619;DHT22;38518;53.164;5.430;2024-01-07T15:58:01;0.30;1.00
51619;DHT22;38518;53.164;5.430;2024-01-07T16:00:27;0.30;1.00
51619;DHT22;38518;53.164;5.430;2024-01-07T16:02:53;0.90;1.00
51619;DHT22;38518;53.164;5.430;2024-01-07T16:05:19;0.80;1.00
51619;DHT22;38518;53.164;5.430;2024-01-07T16:07:45;0.40;1.00